sensor_id;sensor_type;location;lat;lon;timestamp;P1;durP1;ratioP1;P2;durP2;ratioP2
59974;SDS011;62136;-35.664;-63.766;2022-10-16T00:01:04;2.88;;;2.20;;
59974;SDS011;62136;-35.664;-63.766;2022-10-16T00:03:37;3.97;;;2.30;;
59974;SDS011;62136;-35.664;-63.766;2022-10-16T00:06:04;2.88;;;2.40;;
59974;SDS011;62136;-35.664;-63.766;2022-10-16T00:08:32;3.92;;;2.20;;
59974;SDS011;62136;-35.664;-63.766;2022-10-16T00:11:04;3.35;;;2.28;;
59974;SDS011;62136;-35.664;-63.766;2022-10-16T00:13:37;4.28;;;2.22;;
59974;SDS011;62136;-35.664;-63.766;2022-10-16T00:16:06;5.05;;;2.45;;
59974;SDS011;62136;-35.664;-63.766;2022-10-16T00:18:35;4.40;;;2.20;;
59974;SDS011;62136;-35.664;-63.766;2022-10-16T00:21:03;3.40;;;2.63;;
59974;SDS011;62136;-35.664;-63.766;2022-10-16T00:23:32;2.70;;;2.00;;
59974;SDS011;62136;-35.664;-63.766;2022-10-16T00:26:05;3.50;;;2.67;;
59974;SDS011;62136;-35.664;-63.766;2022-10-16T00:28:35;4.78;;;2.78;;
59974;SDS011;62136;-35.664;-63.766;2022-10-16T00:31:04;5.10;;;2.50;;
59974;SDS011;62136;-35.664;-63.766;2022-10-16T00:33:32;4.55;;;2.70;;
59974;SDS011;62136;-35.664;-63.766;2022-10-16T00:36:01;3.35;;;2.30;;
59974;SDS011;62136;-35.664;-63.766;2022-10-16T00:38:29;3.55;;;2.88;;
59974;SDS011;62136;-35.664;-63.766;2022-10-16T00:40:56;3.67;;;2.85;;
59974;SDS011;62136;-35.664;-63.766;2022-10-16T00:46:12;5.32;;;3.10;;
59974;SDS011;62136;-35.664;-63.766;2022-10-16T00:48:40;3.50;;;2.70;;
59974;SDS011;62136;-35.664;-63.766;2022-10-16T00:51:11;3.33;;;2.50;;
59974;SDS011;62136;-35.664;-63.766;2022-10-16T00:53:38;4.53;;;3.10;;
59974;SDS011;62136;-35.664;-63.766;2022-10-16T00:56:05;4.63;;;2.90;;
59974;SDS011;62136;-35.664;-63.766;2022-10-16T00:58:33;4.55;;;3.25;;
59974;SDS011;62136;-35.664;-63.766;2022-10-16T01:01:00;5.00;;;2.85;;
59974;SDS011;62136;-35.664;-63.766;2022-10-16T01:14:14;3.80;;;3.28;;
59974;SDS011;62136;-35.664;-63.766;2022-10-16T01:17:04;6.57;;;3.95;;
59974;SDS011;62136;-35.664;-63.766;2022-10-16T01:19:50;6.55;;;3.65;;
59974;SDS011;62136;-35.664;-63.766;2022-10-16T01:22:43;4.30;;;3.30;;
59974;SDS011;62136;-35.664;-63.766;2022-10-16T01:28:15;5.72;;;3.78;;
59974;SDS011;62136;-35.664;-63.766;2022-10-16T01:30:47;4.68;;;3.30;;
59974;SDS011;62136;-35.664;-63.766;2022-10-16T01:35:46;5.00;;;4.00;;
59974;SDS011;62136;-35.664;-63.766;2022-10-16T01:38:34;4.70;;;4.10;;
59974;SDS011;62136;-35.664;-63.766;2022-10-16T01:41:39;5.75;;;4.20;;
59974;SDS011;62136;-35.664;-63.766;2022-10-16T01:44:02;6.95;;;4.28;;
59974;SDS011;62136;-35.664;-63.766;2022-10-16T01:46:30;6.53;;;4.00;;
59974;SDS011;62136;-35.664;-63.766;2022-10-16T01:48:59;5.95;;;3.80;;
59974;SDS011;62136;-35.664;-63.766;2022-10-16T01:51:28;6.47;;;4.68;;
59974;SDS011;62136;-35.664;-63.766;2022-10-16T01:53:56;7.28;;;4.57;;
59974;SDS011;62136;-35.664;-63.766;2022-10-16T01:56:26;7.15;;;4.78;;
59974;SDS011;62136;-35.664;-63.766;2022-10-16T01:59:02;6.40;;;5.10;;
59974;SDS011;62136;-35.664;-63.766;2022-10-16T02:01:33;6.00;;;4.50;;
59974;SDS011;62136;-35.664;-63.766;2022-10-16T02:04:24;8.57;;;5.50;;
59974;SDS011;62136;-35.664;-63.766;2022-10-16T02:07:02;8.20;;;4.93;;
59974;SDS011;62136;-35.664;-63.766;2022-10-16T02:09:29;6.07;;;4.68;;
59974;SDS011;62136;-35.664;-63.766;2022-10-16T02:11:59;6.45;;;4.65;;
59974;SDS011;62136;-35.664;-63.766;2022-10-16T02:14:41;8.90;;;5.03;;
59974;SDS011;62136;-35.664;-63.766;2022-10-16T02:17:12;8.65;;;5.55;;
59974;SDS011;62136;-35.664;-63.766;2022-10-16T02:19:41;8.18;;;5.30;;
59974;SDS011;62136;-35.664;-63.766;2022-10-16T02:22:14;8.00;;;5.28;;
59974;SDS011;62136;-35.664;-63.766;2022-10-16T02:27:54;6.80;;;4.63;;
59974;SDS011;62136;-35.664;-63.766;2022-10-16T02:33:13;7.32;;;5.10;;
59974;SDS011;62136;-35.664;-63.766;2022-10-16T02:35:43;8.73;;;4.82;;
59974;SDS011;62136;-35.664;-63.766;2022-10-16T02:38:12;7.47;;;5.32;;
59974;SDS011;62136;-35.664;-63.766;2022-10-16T02:40:41;7.00;;;5.00;;
59974;SDS011;62136;-35.664;-63.766;2022-10-16T02:43:08;8.65;;;5.00;;
59974;SDS011;62136;-35.664;-63.766;2022-10-16T02:45:37;6.10;;;4.60;;
59974;SDS011;62136;-35.664;-63.766;2022-10-16T02:48:04;6.78;;;5.18;;
59974;SDS011;62136;-35.664;-63.766;2022-10-16T02:50:31;7.25;;;5.30;;
59974;SDS011;62136;-35.664;-63.766;2022-10-16T02:52:58;6.03;;;5.07;;
59974;SDS011;62136;-35.664;-63.766;2022-10-16T02:55:25;6.30;;;4.32;;
59974;SDS011;62136;-35.664;-63.766;2022-10-16T02:57:53;5.93;;;5.00;;
59974;SDS011;62136;-35.664;-63.766;2022-10-16T03:00:20;7.13;;;4.93;;
59974;SDS011;62136;-35.664;-63.766;2022-10-16T03:02:47;5.75;;;4.95;;
59974;SDS011;62136;-35.664;-63.766;2022-10-16T03:05:14;6.38;;;4.68;;
59974;SDS011;62136;-35.664;-63.766;2022-10-16T03:07:41;7.45;;;4.97;;
59974;SDS011;62136;-35.664;-63.766;2022-10-16T03:10:08;7.43;;;4.88;;
59974;SDS011;62136;-35.664;-63.766;2022-10-16T03:12:36;6.93;;;4.95;;
59974;SDS011;62136;-35.664;-63.766;2022-10-16T03:15:03;5.90;;;4.25;;
59974;SDS011;62136;-35.664;-63.766;2022-10-16T03:17:31;6.00;;;4.45;;
59974;SDS011;62136;-35.664;-63.766;2022-10-16T03:20:02;6.75;;;4.85;;
59974;SDS011;62136;-35.664;-63.766;2022-10-16T03:22:32;7.60;;;4.93;;
59974;SDS011;62136;-35.664;-63.766;2022-10-16T03:24:59;5.75;;;4.45;;
59974;SDS011;62136;-35.664;-63.766;2022-10-16T03:27:26;7.70;;;4.65;;
59974;SDS011;62136;-35.664;-63.766;2022-10-16T03:29:53;6.43;;;4.85;;
59974;SDS011;62136;-35.664;-63.766;2022-10-16T03:32:20;7.95;;;4.43;;
59974;SDS011;62136;-35.664;-63.766;2022-10-16T03:34:47;7.15;;;4.38;;
59974;SDS011;62136;-35.664;-63.766;2022-10-16T03:37:14;7.15;;;4.45;;
59974;SDS011;62136;-35.664;-63.766;2022-10-16T03:39:41;6.40;;;4.85;;
59974;SDS011;62136;-35.664;-63.766;2022-10-16T03:42:11;5.75;;;4.28;;
59974;SDS011;62136;-35.664;-63.766;2022-10-16T03:44:41;8.00;;;4.60;;
59974;SDS011;62136;-35.664;-63.766;2022-10-16T03:47:08;5.57;;;4.18;;
59974;SDS011;62136;-35.664;-63.766;2022-10-16T03:49:38;4.90;;;3.90;;
59974;SDS011;62136;-35.664;-63.766;2022-10-16T03:52:05;6.10;;;5.05;;
59974;SDS011;62136;-35.664;-63.766;2022-10-16T03:54:35;5.82;;;4.38;;
59974;SDS011;62136;-35.664;-63.766;2022-10-16T03:57:02;6.05;;;4.28;;
59974;SDS011;62136;-35.664;-63.766;2022-10-16T03:59:29;7.43;;;4.30;;
59974;SDS011;62136;-35.664;-63.766;2022-10-16T04:01:59;5.80;;;3.97;;
59974;SDS011;62136;-35.664;-63.766;2022-10-16T04:04:26;7.22;;;4.60;;
59974;SDS011;62136;-35.664;-63.766;2022-10-16T04:06:53;5.35;;;4.13;;
59974;SDS011;62136;-35.664;-63.766;2022-10-16T04:09:20;6.28;;;4.07;;
59974;SDS011;62136;-35.664;-63.766;2022-10-16T04:11:47;5.28;;;3.75;;
59974;SDS011;62136;-35.664;-63.766;2022-10-16T04:14:14;5.68;;;4.45;;
59974;SDS011;62136;-35.664;-63.766;2022-10-16T04:16:41;5.47;;;4.22;;
59974;SDS011;62136;-35.664;-63.766;2022-10-16T04:19:09;6.97;;;4.47;;
59974;SDS011;62136;-35.664;-63.766;2022-10-16T04:21:39;7.15;;;4.38;;
59974;SDS011;62136;-35.664;-63.766;2022-10-16T04:24:06;5.97;;;4.32;;
